sensor_id;sensor_type;location;lat;lon;timestamp;P1;durP1;ratioP1;P2;durP2;ratioP2
68473;SDS011;55461;52.066;5.194;2022-12-18T00:01:00;96.6;;;51.2;;
68473;SDS011;55461;52.066;5.194;2022-12-18T00:04:15;97.3;;;51.6;;
68473;SDS011;55461;52.066;5.194;2022-12-18T00:05:58;89.0;;;49.4;;
68473;SDS011;55461;52.066;5.194;2022-12-18T00:07:36;91.6;;;49.8;;
68473;SDS011;55461;52.066;5.194;2022-12-18T00:09:12;94.2;;;50.6;;
68473;SDS011;55461;52.066;5.194;2022-12-18T00:12:24;90.2;;;49.4;;
68473;SDS011;55461;52.066;5.194;2022-12-18T00:14:00;93.9;;;50.4;;
68473;SDS011;55461;52.066;5.194;2022-12-18T00:15:37;90.3;;;50.0;;
68473;SDS011;55461;52.066;5.194;2022-12-18T00:18:51;102.2;;;53.0;;
68473;SDS011;55461;52.066;5.194;2022-12-18T00:20:35;96.4;;;52.2;;
68473;SDS011;55461;52.066;5.194;2022-12-18T00:22:12;95.7;;;51.8;;
68473;SDS011;55461;52.066;5.194;2022-12-18T00:23:49;95.0;;;51.6;;
68473;SDS011;55461;52.066;5.194;2022-12-18T00:27:03;89.7;;;49.7;;
68473;SDS011;55461;52.066;5.194;2022-12-18T00:28:39;92.7;;;49.2;;
68473;SDS011;55461;52.066;5.194;2022-12-18T00:30:15;87.1;;;48.1;;
68473;SDS011;55461;52.066;5.194;2022-12-18T00:33:28;93.7;;;50.3;;
68473;SDS011;55461;52.066;5.194;2022-12-18T00:35:06;91.8;;;50.4;;
68473;SDS011;55461;52.066;5.194;2022-12-18T00:36:43;90.3;;;50.1;;
68473;SDS011;55461;52.066;5.194;2022-12-18T00:38:19;86.9;;;49.0;;
68473;SDS011;55461;52.066;5.194;2022-12-18T00:41:31;96.4;;;51.3;;
68473;SDS011;55461;52.066;5.194;2022-12-18T00:43:08;98.4;;;51.8;;
68473;SDS011;55461;52.066;5.194;2022-12-18T00:44:45;101.8;;;55.0;;
68473;SDS011;55461;52.066;5.194;2022-12-18T00:47:57;99.9;;;53.3;;
68473;SDS011;55461;52.066;5.194;2022-12-18T00:49:33;91.0;;;49.5;;
68473;SDS011;55461;52.066;5.194;2022-12-18T00:51:09;93.7;;;51.4;;
68473;SDS011;55461;52.066;5.194;2022-12-18T00:54:22;91.8;;;50.0;;
68473;SDS011;55461;52.066;5.194;2022-12-18T00:55:59;93.0;;;50.9;;
68473;SDS011;55461;52.066;5.194;2022-12-18T00:57:35;101.0;;;53.5;;
68473;SDS011;55461;52.066;5.194;2022-12-18T01:00:47;94.6;;;51.7;;
68473;SDS011;55461;52.066;5.194;2022-12-18T01:02:24;94.8;;;51.3;;
68473;SDS011;55461;52.066;5.194;2022-12-18T01:04:00;94.9;;;51.2;;
68473;SDS011;55461;52.066;5.194;2022-12-18T01:05:38;93.6;;;52.1;;
68473;SDS011;55461;52.066;5.194;2022-12-18T01:08:51;97.0;;;52.3;;
68473;SDS011;55461;52.066;5.194;2022-12-18T01:10:28;96.7;;;51.2;;
68473;SDS011;55461;52.066;5.194;2022-12-18T01:12:04;96.3;;;52.0;;
68473;SDS011;55461;52.066;5.194;2022-12-18T01:15:18;97.0;;;52.0;;
68473;SDS011;55461;52.066;5.194;2022-12-18T01:16:55;96.3;;;52.0;;
68473;SDS011;55461;52.066;5.194;2022-12-18T01:18:31;97.9;;;52.4;;
68473;SDS011;55461;52.066;5.194;2022-12-18T01:20:09;95.2;;;51.0;;
68473;SDS011;55461;52.066;5.194;2022-12-18T01:23:23;98.0;;;51.7;;
68473;SDS011;55461;52.066;5.194;2022-12-18T01:25:03;103.3;;;52.5;;
68473;SDS011;55461;52.066;5.194;2022-12-18T01:26:40;95.4;;;51.6;;
68473;SDS011;55461;52.066;5.194;2022-12-18T01:29:53;99.8;;;51.8;;
68473;SDS011;55461;52.066;5.194;2022-12-18T01:31:31;98.3;;;51.2;;
68473;SDS011;55461;52.066;5.194;2022-12-18T01:33:09;102.0;;;52.7;;
68473;SDS011;55461;52.066;5.194;2022-12-18T01:34:45;103.3;;;53.3;;
68473;SDS011;55461;52.066;5.194;2022-12-18T01:38:01;101.6;;;53.2;;
68473;SDS011;55461;52.066;5.194;2022-12-18T01:39:37;106.4;;;54.0;;
68473;SDS011;55461;52.066;5.194;2022-12-18T01:41:14;102.9;;;54.3;;
68473;SDS011;55461;52.066;5.194;2022-12-18T01:44:50;101.9;;;53.4;;
68473;SDS011;55461;52.066;5.194;2022-12-18T01:46:57;103.2;;;54.6;;
68473;SDS011;55461;52.066;5.194;2022-12-18T01:48:33;95.9;;;52.0;;
68473;SDS011;55461;52.066;5.194;2022-12-18T01:50:11;97.4;;;51.9;;
68473;SDS011;55461;52.066;5.194;2022-12-18T01:51:51;99.3;;;52.6;;
68473;SDS011;55461;52.066;5.194;2022-12-18T01:55:04;90.7;;;49.7;;
68473;SDS011;55461;52.066;5.194;2022-12-18T01:56:42;97.0;;;51.5;;
68473;SDS011;55461;52.066;5.194;2022-12-18T01:58:18;93.6;;;50.4;;
68473;SDS011;55461;52.066;5.194;2022-12-18T02:00:00;89.9;;;49.0;;
68473;SDS011;55461;52.066;5.194;2022-12-18T02:03:20;92.1;;;49.5;;
68473;SDS011;55461;52.066;5.194;2022-12-18T02:04:56;91.3;;;49.5;;
68473;SDS011;55461;52.066;5.194;2022-12-18T02:06:33;90.4;;;49.4;;
68473;SDS011;55461;52.066;5.194;2022-12-18T02:08:16;85.3;;;46.8;;
68473;SDS011;55461;52.066;5.194;2022-12-18T02:11:47;87.1;;;47.6;;
68473;SDS011;55461;52.066;5.194;2022-12-18T02:13:32;88.0;;;48.2;;
68473;SDS011;55461;52.066;5.194;2022-12-18T02:15:19;92.5;;;48.7;;
68473;SDS011;55461;52.066;5.194;2022-12-18T02:17:03;86.7;;;48.0;;
68473;SDS011;55461;52.066;5.194;2022-12-18T02:18:48;89.1;;;48.6;;
68473;SDS011;55461;52.066;5.194;2022-12-18T02:22:17;85.4;;;47.9;;
68473;SDS011;55461;52.066;5.194;2022-12-18T02:24:11;86.5;;;47.0;;
68473;SDS011;55461;52.066;5.194;2022-12-18T02:26:02;86.4;;;47.8;;
68473;SDS011;55461;52.066;5.194;2022-12-18T02:27:47;87.1;;;46.5;;
68473;SDS011;55461;52.066;5.194;2022-12-18T02:29:27;91.2;;;48.4;;
68473;SDS011;55461;52.066;5.194;2022-12-18T02:32:52;79.3;;;45.0;;
68473;SDS011;55461;52.066;5.194;2022-12-18T02:34:32;85.1;;;45.7;;
68473;SDS011;55461;52.066;5.194;2022-12-18T02:36:13;81.8;;;45.6;;
68473;SDS011;55461;52.066;5.194;2022-12-18T02:37:52;83.5;;;45.8;;
68473;SDS011;55461;52.066;5.194;2022-12-18T02:41:08;88.1;;;47.2;;
68473;SDS011;55461;52.066;5.194;2022-12-18T02:42:45;83.2;;;46.5;;
68473;SDS011;55461;52.066;5.194;2022-12-18T02:44:22;83.3;;;45.6;;
68473;SDS011;55461;52.066;5.194;2022-12-18T02:45:59;83.6;;;45.8;;
68473;SDS011;55461;52.066;5.194;2022-12-18T02:47:56;87.0;;;46.3;;
68473;SDS011;55461;52.066;5.194;2022-12-18T02:51:21;82.6;;;46.4;;
68473;SDS011;55461;52.066;5.194;2022-12-18T02:53:07;84.4;;;46.1;;
68473;SDS011;55461;52.066;5.194;2022-12-18T02:54:54;84.6;;;46.7;;
68473;SDS011;55461;52.066;5.194;2022-12-18T02:56:42;84.6;;;46.7;;
68473;SDS011;55461;52.066;5.194;2022-12-18T02:58:26;86.6;;;47.7;;
68473;SDS011;55461;52.066;5.194;2022-12-18T03:01:51;84.9;;;46.7;;
68473;SDS011;55461;52.066;5.194;2022-12-18T03:03:35;83.3;;;46.8;;
68473;SDS011;55461;52.066;5.194;2022-12-18T03:05:17;83.8;;;46.7;;
68473;SDS011;55461;52.066;5.194;2022-12-18T03:06:59;81.5;;;45.1;;
68473;SDS011;55461;52.066;5.194;2022-12-18T03:10:25;82.7;;;47.0;;
68473;SDS011;55461;52.066;5.194;2022-12-18T03:12:06;85.4;;;47.0;;
68473;SDS011;55461;52.066;5.194;2022-12-18T03:13:50;81.2;;;45.3;;
68473;SDS011;55461;52.066;5.194;2022-12-18T03:15:34;81.0;;;44.6;;
68473;SDS011;55461;52.066;5.194;2022-12-18T03:17:14;80.11;;;45.2;;
68473;SDS011;55461;52.066;5.194;2022-12-18T03:20:37;80.11;;;45.2;;
68473;SDS011;55461;52.066;5.194;2022-12-18T03:22:19;79.11;;;45.4;;
68473;SDS011;55461;52.066;5.194;2022-12-18T03:23:59;81.8;;;46.3;;
68473;SDS011;55461;52.066;5.194;2022-12-18T03:25:38;86.2;;;46.4;;
68473;SDS011;55461;52.066;5.194;2022-12-18T03:28:59;85.2;;;47.6;;
68473;SDS011;55461;52.066;5.194;2022-12-18T03:30:43;80.11;;;46.5;;
68473;SDS011;55461;52.066;5.194;2022-12-18T03:32:24;79.11;;;44.9;;
68473;SDS011;55461;52.066;5.194;2022-12-18T03:34:05;77.41;;;44.8;;
68473;SDS011;55461;52.066;5.194;2022-12-18T03:37:25;88.1;;;48.3;;
68473;SDS011;55461;52.066;5.194;2022-12-18T03:39:02;84.0;;;46.4;;
68473;SDS011;55461;52.066;5.194;2022-12-18T03:40:42;81.3;;;46.6;;
68473;SDS011;55461;52.066;5.194;2022-12-18T03:42:37;81.7;;;47.1;;
68473;SDS011;55461;52.066;5.194;2022-12-18T03:46:08;81.7;;;47.1;;
68473;SDS011;55461;52.066;5.194;2022-12-18T03:47:53;82.0;;;47.3;;
68473;SDS011;55461;52.066;5.194;2022-12-18T03:49:38;82.8;;;46.7;;
68473;SDS011;55461;52.066;5.194;2022-12-18T03:51:23;82.1;;;47.2;;
68473;SDS011;55461;52.066;5.194;2022-12-18T03:53:08;83.9;;;48.1;;
68473;SDS011;55461;52.066;5.194;2022-12-18T03:54:54;82.5;;;47.8;;
68473;SDS011;55461;52.066;5.194;2022-12-18T03:58:17;79.3;;;46.9;;
68473;SDS011;55461;52.066;5.194;2022-12-18T03:59:57;87.5;;;47.5;;
68473;SDS011;55461;52.066;5.194;2022-12-18T04:01:39;80.0;;;46.9;;
68473;SDS011;55461;52.066;5.194;2022-12-18T04:03:18;77.41;;;46.1;;
68473;SDS011;55461;52.066;5.194;2022-12-18T04:06:38;79.7;;;46.0;;
68473;SDS011;55461;52.066;5.194;2022-12-18T04:08:16;80.61;;;46.7;;
68473;SDS011;55461;52.066;5.194;2022-12-18T04:09:53;78.3;;;45.9;;
68473;SDS011;55461;52.066;5.194;2022-12-18T04:13:08;74.11;;;44.2;;
68473;SDS011;55461;52.066;5.194;2022-12-18T04:14:45;72.2;;;42.6;;
68473;SDS011;55461;52.066;5.194;2022-12-18T04:16:21;71.41;;;43.2;;
68473;SDS011;55461;52.066;5.194;2022-12-18T04:17:57;72.3;;;43.4;;
68473;SDS011;55461;52.066;5.194;2022-12-18T04:21:10;73.5;;;43.6;;
68473;SDS011;55461;52.066;5.194;2022-12-18T04:22:47;70.2;;;41.9;;
68473;SDS011;55461;52.066;5.194;2022-12-18T04:24:24;70.2;;;41.9;;
68473;SDS011;55461;52.066;5.194;2022-12-18T04:27:36;66.41;;;39.6;;
68473;SDS011;55461;52.066;5.194;2022-12-18T04:29:12;69.0;;;42.4;;
68473;SDS011;55461;52.066;5.194;2022-12-18T04:30:49;64.2;;;39.31;;
68473;SDS011;55461;52.066;5.194;2022-12-18T04:34:01;63.8;;;39.31;;
68473;SDS011;55461;52.066;5.194;2022-12-18T04:35:37;67.41;;;40.1;;
68473;SDS011;55461;52.066;5.194;2022-12-18T04:37:13;60.5;;;37.31;;
68473;SDS011;55461;52.066;5.194;2022-12-18T04:38:49;59.5;;;36.31;;
68473;SDS011;55461;52.066;5.194;2022-12-18T04:42:02;60.8;;;37.9;;
68473;SDS011;55461;52.066;5.194;2022-12-18T04:43:38;58.8;;;36.71;;
68473;SDS011;55461;52.066;5.194;2022-12-18T04:45:14;58.8;;;36.4;;
68473;SDS011;55461;52.066;5.194;2022-12-18T04:48:26;55.4;;;35.9;;
68473;SDS011;55461;52.066;5.194;2022-12-18T04:50:03;60.3;;;36.4;;
68473;SDS011;55461;52.066;5.194;2022-12-18T04:51:40;58.3;;;36.4;;
68473;SDS011;55461;52.066;5.194;2022-12-18T04:54:53;54.5;;;34.81;;
68473;SDS011;55461;52.066;5.194;2022-12-18T04:56:30;57.8;;;35.0;;
68473;SDS011;55461;52.066;5.194;2022-12-18T04:58:07;51.6;;;34.0;;
68473;SDS011;55461;52.066;5.194;2022-12-18T04:59:43;54.5;;;34.31;;
68473;SDS011;55461;52.066;5.194;2022-12-18T05:02:55;51.9;;;32.8;;
68473;SDS011;55461;52.066;5.194;2022-12-18T05:04:31;49.9;;;32.3;;
68473;SDS011;55461;52.066;5.194;2022-12-18T05:06:08;50.4;;;32.4;;
68473;SDS011;55461;52.066;5.194;2022-12-18T05:09:21;49.8;;;31.7;;
68473;SDS011;55461;52.066;5.194;2022-12-18T05:10:59;46.1;;;30.3;;
68473;SDS011;55461;52.066;5.194;2022-12-18T05:12:37;48.5;;;31.1;;
68473;SDS011;55461;52.066;5.194;2022-12-18T05:15:50;50.4;;;31.6;;
68473;SDS011;55461;52.066;5.194;2022-12-18T05:17:28;46.5;;;30.1;;
68473;SDS011;55461;52.066;5.194;2022-12-18T05:19:04;46.9;;;30.3;;
68473;SDS011;55461;52.066;5.194;2022-12-18T05:20:41;43.5;;;28.9;;
68473;SDS011;55461;52.066;5.194;2022-12-18T05:23:53;47.2;;;29.9;;
68473;SDS011;55461;52.066;5.194;2022-12-18T05:25:29;40.0;;;28.3;;
68473;SDS011;55461;52.066;5.194;2022-12-18T05:27:05;47.8;;;29.4;;
68473;SDS011;55461;52.066;5.194;2022-12-18T05:30:18;41.6;;;27.9;;
68473;SDS011;55461;52.066;5.194;2022-12-18T05:31:54;42.2;;;28.5;;
68473;SDS011;55461;52.066;5.194;2022-12-18T05:33:31;43.1;;;28.5;;
68473;SDS011;55461;52.066;5.194;2022-12-18T05:36:48;45.4;;;28.6;;
68473;SDS011;55461;52.066;5.194;2022-12-18T05:38:24;42.4;;;27.9;;
68473;SDS011;55461;52.066;5.194;2022-12-18T05:40:03;42.0;;;27.4;;
68473;SDS011;55461;52.066;5.194;2022-12-18T05:41:40;43.4;;;28.5;;
68473;SDS011;55461;52.066;5.194;2022-12-18T05:44:53;41.9;;;28.0;;
68473;SDS011;55461;52.066;5.194;2022-12-18T05:46:30;44.4;;;29.2;;
68473;SDS011;55461;52.066;5.194;2022-12-18T05:48:06;45.1;;;28.5;;
68473;SDS011;55461;52.066;5.194;2022-12-18T05:51:20;39.71;;;26.5;;
68473;SDS011;55461;52.066;5.194;2022-12-18T05:52:57;41.6;;;27.4;;
68473;SDS011;55461;52.066;5.194;2022-12-18T05:54:34;39.31;;;25.9;;
68473;SDS011;55461;52.066;5.194;2022-12-18T05:57:50;39.81;;;26.6;;
68473;SDS011;55461;52.066;5.194;2022-12-18T05:59:26;39.71;;;26.4;;
68473;SDS011;55461;52.066;5.194;2022-12-18T06:01:06;38.0;;;26.3;;
68473;SDS011;55461;52.066;5.194;2022-12-18T06:02:46;40.21;;;26.6;;
68473;SDS011;55461;52.066;5.194;2022-12-18T06:05:59;37.21;;;26.1;;
68473;SDS011;55461;52.066;5.194;2022-12-18T06:07:35;40.31;;;26.5;;
68473;SDS011;55461;52.066;5.194;2022-12-18T06:09:11;39.9;;;27.0;;
68473;SDS011;55461;52.066;5.194;2022-12-18T06:12:27;40.21;;;27.5;;
68473;SDS011;55461;52.066;5.194;2022-12-18T06:14:04;39.81;;;27.1;;
68473;SDS011;55461;52.066;5.194;2022-12-18T06:15:41;39.9;;;27.0;;
68473;SDS011;55461;52.066;5.194;2022-12-18T06:17:17;39.71;;;26.5;;
68473;SDS011;55461;52.066;5.194;2022-12-18T06:20:32;39.4;;;27.0;;
68473;SDS011;55461;52.066;5.194;2022-12-18T06:22:08;37.9;;;26.1;;
68473;SDS011;55461;52.066;5.194;2022-12-18T06:25:20;38.0;;;26.0;;
68473;SDS011;55461;52.066;5.194;2022-12-18T06:26:57;36.21;;;25.9;;
68473;SDS011;55461;52.066;5.194;2022-12-18T06:28:33;37.9;;;26.0;;
68473;SDS011;55461;52.066;5.194;2022-12-18T06:30:09;39.5;;;26.5;;
68473;SDS011;55461;52.066;5.194;2022-12-18T06:31:46;37.31;;;25.9;;
68473;SDS011;55461;52.066;5.194;2022-12-18T06:35:03;35.71;;;25.1;;
68473;SDS011;55461;52.066;5.194;2022-12-18T06:36:40;35.31;;;25.2;;
68473;SDS011;55461;52.066;5.194;2022-12-18T06:38:16;36.6;;;25.0;;
68473;SDS011;55461;52.066;5.194;2022-12-18T06:41:28;38.6;;;27.2;;
68473;SDS011;55461;52.066;5.194;2022-12-18T06:43:04;39.71;;;26.6;;
68473;SDS011;55461;52.066;5.194;2022-12-18T06:44:42;33.9;;;24.2;;
68473;SDS011;55461;52.066;5.194;2022-12-18T06:47:55;37.4;;;26.2;;
68473;SDS011;55461;52.066;5.194;2022-12-18T06:49:31;36.81;;;25.2;;
68473;SDS011;55461;52.066;5.194;2022-12-18T06:51:07;34.5;;;25.1;;
68473;SDS011;55461;52.066;5.194;2022-12-18T06:52:44;35.0;;;24.8;;
68473;SDS011;55461;52.066;5.194;2022-12-18T06:55:59;34.6;;;24.9;;
68473;SDS011;55461;52.066;5.194;2022-12-18T06:57:36;36.81;;;26.1;;
68473;SDS011;55461;52.066;5.194;2022-12-18T06:59:13;35.9;;;25.0;;
68473;SDS011;55461;52.066;5.194;2022-12-18T07:02:27;36.1;;;24.9;;
68473;SDS011;55461;52.066;5.194;2022-12-18T07:04:03;37.31;;;25.6;;
68473;SDS011;55461;52.066;5.194;2022-12-18T07:05:39;36.21;;;25.2;;
68473;SDS011;55461;52.066;5.194;2022-12-18T07:08:54;36.81;;;24.7;;
68473;SDS011;55461;52.066;5.194;2022-12-18T07:10:31;37.4;;;26.0;;
68473;SDS011;55461;52.066;5.194;2022-12-18T07:12:07;36.9;;;25.1;;
68473;SDS011;55461;52.066;5.194;2022-12-18T07:13:43;35.5;;;24.6;;
68473;SDS011;55461;52.066;5.194;2022-12-18T07:16:56;35.9;;;25.3;;
68473;SDS011;55461;52.066;5.194;2022-12-18T07:18:33;36.1;;;25.6;;
68473;SDS011;55461;52.066;5.194;2022-12-18T07:20:09;37.81;;;25.9;;
68473;SDS011;55461;52.066;5.194;2022-12-18T07:23:22;36.0;;;24.9;;
68473;SDS011;55461;52.066;5.194;2022-12-18T07:24:58;37.5;;;24.8;;
68473;SDS011;55461;52.066;5.194;2022-12-18T07:26:34;36.31;;;25.4;;
68473;SDS011;55461;52.066;5.194;2022-12-18T07:29:47;36.1;;;24.8;;
68473;SDS011;55461;52.066;5.194;2022-12-18T07:31:23;35.71;;;25.0;;
68473;SDS011;55461;52.066;5.194;2022-12-18T07:33:00;34.9;;;25.3;;
68473;SDS011;55461;52.066;5.194;2022-12-18T07:34:37;37.31;;;25.5;;
68473;SDS011;55461;52.066;5.194;2022-12-18T07:37:50;36.81;;;25.8;;
68473;SDS011;55461;52.066;5.194;2022-12-18T07:39:26;34.81;;;25.2;;
68473;SDS011;55461;52.066;5.194;2022-12-18T07:41:03;36.1;;;25.3;;
68473;SDS011;55461;52.066;5.194;2022-12-18T07:44:17;34.6;;;25.2;;
68473;SDS011;55461;52.066;5.194;2022-12-18T07:45:54;36.31;;;24.7;;
68473;SDS011;55461;52.066;5.194;2022-12-18T07:47:33;36.1;;;25.5;;
68473;SDS011;55461;52.066;5.194;2022-12-18T07:49:10;36.4;;;25.5;;
68473;SDS011;55461;52.066;5.194;2022-12-18T07:52:22;38.0;;;26.1;;
68473;SDS011;55461;52.066;5.194;2022-12-18T07:53:59;36.5;;;26.5;;
68473;SDS011;55461;52.066;5.194;2022-12-18T07:55:35;35.0;;;24.8;;
68473;SDS011;55461;52.066;5.194;2022-12-18T07:58:48;35.81;;;25.5;;
68473;SDS011;55461;52.066;5.194;2022-12-18T08:00:24;35.4;;;25.4;;
68473;SDS011;55461;52.066;5.194;2022-12-18T08:02:00;35.81;;;25.7;;
68473;SDS011;55461;52.066;5.194;2022-12-18T08:05:14;35.0;;;25.7;;
68473;SDS011;55461;52.066;5.194;2022-12-18T08:06:51;35.81;;;25.4;;
68473;SDS011;55461;52.066;5.194;2022-12-18T08:08:27;33.21;;;24.2;;
68473;SDS011;55461;52.066;5.194;2022-12-18T08:10:04;35.9;;;25.1;;
68473;SDS011;55461;52.066;5.194;2022-12-18T08:13:19;34.9;;;24.9;;
68473;SDS011;55461;52.066;5.194;2022-12-18T08:14:54;33.9;;;24.4;;
68473;SDS011;55461;52.066;5.194;2022-12-18T08:16:31;35.71;;;24.9;;
68473;SDS011;55461;52.066;5.194;2022-12-18T08:19:43;33.8;;;24.7;;
68473;SDS011;55461;52.066;5.194;2022-12-18T08:21:20;32.9;;;23.6;;
68473;SDS011;55461;52.066;5.194;2022-12-18T08:22:58;33.3;;;24.4;;
68473;SDS011;55461;52.066;5.194;2022-12-18T08:26:11;34.0;;;24.3;;
68473;SDS011;55461;52.066;5.194;2022-12-18T08:27:47;35.71;;;24.8;;
68473;SDS011;55461;52.066;5.194;2022-12-18T08:29:24;33.9;;;24.7;;
68473;SDS011;55461;52.066;5.194;2022-12-18T08:32:36;34.9;;;24.4;;
68473;SDS011;55461;52.066;5.194;2022-12-18T08:34:11;35.5;;;24.6;;
68473;SDS011;55461;52.066;5.194;2022-12-18T08:35:47;35.4;;;24.4;;
68473;SDS011;55461;52.066;5.194;2022-12-18T08:37:24;35.81;;;25.1;;
68473;SDS011;55461;52.066;5.194;2022-12-18T08:40:37;33.8;;;24.4;;
68473;SDS011;55461;52.066;5.194;2022-12-18T08:43:48;34.31;;;24.6;;
68473;SDS011;55461;52.066;5.194;2022-12-18T08:47:01;44.9;;;30.3;;
68473;SDS011;55461;52.066;5.194;2022-12-18T08:48:37;38.81;;;28.2;;
68473;SDS011;55461;52.066;5.194;2022-12-18T08:50:14;33.8;;;25.0;;
68473;SDS011;55461;52.066;5.194;2022-12-18T08:53:30;31.6;;;23.2;;
68473;SDS011;55461;52.066;5.194;2022-12-18T08:55:07;35.9;;;25.0;;
68473;SDS011;55461;52.066;5.194;2022-12-18T08:56:44;32.21;;;24.1;;
68473;SDS011;55461;52.066;5.194;2022-12-18T08:58:21;33.21;;;23.9;;
68473;SDS011;55461;52.066;5.194;2022-12-18T09:01:33;32.0;;;23.2;;
68473;SDS011;55461;52.066;5.194;2022-12-18T09:03:10;32.4;;;23.7;;
68473;SDS011;55461;52.066;5.194;2022-12-18T09:04:48;33.1;;;23.6;;
68473;SDS011;55461;52.066;5.194;2022-12-18T09:08:00;30.9;;;22.2;;
68473;SDS011;55461;52.066;5.194;2022-12-18T09:09:36;30.3;;;22.3;;
68473;SDS011;55461;52.066;5.194;2022-12-18T09:11:13;31.2;;;22.2;;
68473;SDS011;55461;52.066;5.194;2022-12-18T09:12:54;30.8;;;22.8;;
68473;SDS011;55461;52.066;5.194;2022-12-18T09:16:06;30.7;;;22.7;;
68473;SDS011;55461;52.066;5.194;2022-12-18T09:17:43;29.4;;;21.6;;
68473;SDS011;55461;52.066;5.194;2022-12-18T09:19:19;29.8;;;22.3;;
68473;SDS011;55461;52.066;5.194;2022-12-18T09:22:31;30.8;;;22.2;;
68473;SDS011;55461;52.066;5.194;2022-12-18T09:24:08;31.3;;;22.7;;
68473;SDS011;55461;52.066;5.194;2022-12-18T09:25:49;29.4;;;21.7;;
68473;SDS011;55461;52.066;5.194;2022-12-18T09:29:01;32.0;;;23.1;;
68473;SDS011;55461;52.066;5.194;2022-12-18T09:30:38;31.0;;;22.8;;
68473;SDS011;55461;52.066;5.194;2022-12-18T09:32:16;31.7;;;22.8;;
68473;SDS011;55461;52.066;5.194;2022-12-18T09:33:54;31.2;;;22.8;;
68473;SDS011;55461;52.066;5.194;2022-12-18T09:37:07;31.0;;;22.6;;
68473;SDS011;55461;52.066;5.194;2022-12-18T09:38:43;31.7;;;21.8;;
68473;SDS011;55461;52.066;5.194;2022-12-18T09:40:21;30.8;;;22.8;;
68473;SDS011;55461;52.066;5.194;2022-12-18T09:43:40;31.4;;;22.1;;
68473;SDS011;55461;52.066;5.194;2022-12-18T09:45:21;31.0;;;22.0;;
68473;SDS011;55461;52.066;5.194;2022-12-18T09:47:01;31.2;;;23.3;;
68473;SDS011;55461;52.066;5.194;2022-12-18T09:48:46;31.4;;;23.0;;
68473;SDS011;55461;52.066;5.194;2022-12-18T09:52:09;29.9;;;22.6;;
68473;SDS011;55461;52.066;5.194;2022-12-18T09:53:52;29.9;;;21.9;;
68473;SDS011;55461;52.066;5.194;2022-12-18T09:55:34;30.8;;;22.1;;
68473;SDS011;55461;52.066;5.194;2022-12-18T09:57:14;30.0;;;21.9;;
68473;SDS011;55461;52.066;5.194;2022-12-18T09:58:55;32.0;;;23.1;;
68473;SDS011;55461;52.066;5.194;2022-12-18T10:02:13;29.0;;;21.5;;
68473;SDS011;55461;52.066;5.194;2022-12-18T10:03:52;29.8;;;21.3;;
68473;SDS011;55461;52.066;5.194;2022-12-18T10:05:33;30.2;;;21.8;;
68473;SDS011;55461;52.066;5.194;2022-12-18T10:07:24;31.5;;;22.4;;
68473;SDS011;55461;52.066;5.194;2022-12-18T10:10:57;30.4;;;21.7;;
68473;SDS011;55461;52.066;5.194;2022-12-18T10:12:45;30.4;;;21.7;;
68473;SDS011;55461;52.066;5.194;2022-12-18T10:14:33;30.3;;;21.6;;
68473;SDS011;55461;52.066;5.194;2022-12-18T10:16:17;28.5;;;21.2;;
68473;SDS011;55461;52.066;5.194;2022-12-18T10:18:03;29.2;;;21.2;;
68473;SDS011;55461;52.066;5.194;2022-12-18T10:19:58;29.6;;;20.5;;
68473;SDS011;55461;52.066;5.194;2022-12-18T10:23:25;28.1;;;20.41;;
68473;SDS011;55461;52.066;5.194;2022-12-18T10:25:14;27.3;;;20.11;;
68473;SDS011;55461;52.066;5.194;2022-12-18T10:26:56;27.6;;;20.6;;
68473;SDS011;55461;52.066;5.194;2022-12-18T10:28:45;27.9;;;20.6;;
68473;SDS011;55461;52.066;5.194;2022-12-18T10:30:23;27.8;;;20.7;;
68473;SDS011;55461;52.066;5.194;2022-12-18T10:33:38;27.4;;;20.6;;
68473;SDS011;55461;52.066;5.194;2022-12-18T10:35:16;26.6;;;20.3;;
68473;SDS011;55461;52.066;5.194;2022-12-18T10:36:55;31.0;;;22.1;;
68473;SDS011;55461;52.066;5.194;2022-12-18T10:40:10;28.9;;;21.3;;
68473;SDS011;55461;52.066;5.194;2022-12-18T10:41:49;29.3;;;20.8;;
68473;SDS011;55461;52.066;5.194;2022-12-18T10:43:26;30.8;;;21.9;;
68473;SDS011;55461;52.066;5.194;2022-12-18T10:45:08;29.4;;;20.9;;
68473;SDS011;55461;52.066;5.194;2022-12-18T10:48:30;28.6;;;21.8;;
68473;SDS011;55461;52.066;5.194;2022-12-18T10:50:11;31.1;;;21.8;;
68473;SDS011;55461;52.066;5.194;2022-12-18T10:52:04;30.8;;;22.0;;
68473;SDS011;55461;52.066;5.194;2022-12-18T10:53:44;28.4;;;20.5;;
68473;SDS011;55461;52.066;5.194;2022-12-18T10:55:31;29.8;;;21.4;;
68473;SDS011;55461;52.066;5.194;2022-12-18T10:59:08;30.2;;;21.2;;
68473;SDS011;55461;52.066;5.194;2022-12-18T11:00:47;28.1;;;20.41;;
68473;SDS011;55461;52.066;5.194;2022-12-18T11:02:39;26.5;;;19.7;;
68473;SDS011;55461;52.066;5.194;2022-12-18T11:04:17;27.6;;;20.41;;
68473;SDS011;55461;52.066;5.194;2022-12-18T11:06:01;27.8;;;20.11;;
68473;SDS011;55461;52.066;5.194;2022-12-18T11:09:24;26.7;;;19.8;;
68473;SDS011;55461;52.066;5.194;2022-12-18T11:11:02;26.0;;;19.3;;
68473;SDS011;55461;52.066;5.194;2022-12-18T11:12:43;27.4;;;19.61;;
68473;SDS011;55461;52.066;5.194;2022-12-18T11:14:21;28.4;;;20.2;;
68473;SDS011;55461;52.066;5.194;2022-12-18T11:17:36;28.0;;;20.3;;
68473;SDS011;55461;52.066;5.194;2022-12-18T11:19:17;25.8;;;19.8;;
68473;SDS011;55461;52.066;5.194;2022-12-18T11:21:05;26.3;;;19.3;;
68473;SDS011;55461;52.066;5.194;2022-12-18T11:22:44;26.6;;;19.2;;
68473;SDS011;55461;52.066;5.194;2022-12-18T11:26:12;26.5;;;19.3;;
68473;SDS011;55461;52.066;5.194;2022-12-18T11:27:51;26.8;;;18.91;;
68473;SDS011;55461;52.066;5.194;2022-12-18T11:29:32;27.3;;;19.7;;
68473;SDS011;55461;52.066;5.194;2022-12-18T11:31:17;26.3;;;19.3;;
68473;SDS011;55461;52.066;5.194;2022-12-18T11:33:03;27.7;;;19.8;;
68473;SDS011;55461;52.066;5.194;2022-12-18T11:36:23;26.5;;;18.8;;
68473;SDS011;55461;52.066;5.194;2022-12-18T11:38:02;24.7;;;18.41;;
68473;SDS011;55461;52.066;5.194;2022-12-18T11:39:49;25.0;;;18.2;;
68473;SDS011;55461;52.066;5.194;2022-12-18T11:41:32;25.8;;;18.7;;
68473;SDS011;55461;52.066;5.194;2022-12-18T11:45:02;24.7;;;18.2;;
68473;SDS011;55461;52.066;5.194;2022-12-18T11:46:59;24.8;;;18.41;;
68473;SDS011;55461;52.066;5.194;2022-12-18T11:48:41;24.4;;;17.8;;
68473;SDS011;55461;52.066;5.194;2022-12-18T11:50:24;24.1;;;18.2;;
68473;SDS011;55461;52.066;5.194;2022-12-18T11:52:04;24.3;;;18.41;;
68473;SDS011;55461;52.066;5.194;2022-12-18T11:55:28;26.3;;;19.11;;
68473;SDS011;55461;52.066;5.194;2022-12-18T11:57:27;25.8;;;18.91;;
68473;SDS011;55461;52.066;5.194;2022-12-18T11:59:13;26.9;;;19.41;;
68473;SDS011;55461;52.066;5.194;2022-12-18T12:01:01;24.1;;;17.91;;
68473;SDS011;55461;52.066;5.194;2022-12-18T12:03:02;26.4;;;19.11;;
68473;SDS011;55461;52.066;5.194;2022-12-18T12:06:37;27.1;;;19.0;;
68473;SDS011;55461;52.066;5.194;2022-12-18T12:10:16;27.6;;;19.61;;
68473;SDS011;55461;52.066;5.194;2022-12-18T12:12:10;27.2;;;20.2;;
68473;SDS011;55461;52.066;5.194;2022-12-18T12:14:07;26.4;;;19.11;;
68473;SDS011;55461;52.066;5.194;2022-12-18T12:16:11;26.6;;;18.91;;
68473;SDS011;55461;52.066;5.194;2022-12-18T12:17:54;24.7;;;18.8;;
68473;SDS011;55461;52.066;5.194;2022-12-18T12:19:44;26.7;;;19.61;;
68473;SDS011;55461;52.066;5.194;2022-12-18T12:21:28;26.3;;;19.11;;
68473;SDS011;55461;52.066;5.194;2022-12-18T12:23:18;25.6;;;18.7;;
68473;SDS011;55461;52.066;5.194;2022-12-18T12:27:01;25.9;;;18.8;;
68473;SDS011;55461;52.066;5.194;2022-12-18T12:28:51;25.4;;;18.8;;
68473;SDS011;55461;52.066;5.194;2022-12-18T12:30:43;26.3;;;19.41;;
68473;SDS011;55461;52.066;5.194;2022-12-18T12:32:37;26.3;;;18.8;;
68473;SDS011;55461;52.066;5.194;2022-12-18T12:34:26;26.2;;;19.11;;
68473;SDS011;55461;52.066;5.194;2022-12-18T12:36:12;27.8;;;19.8;;
68473;SDS011;55461;52.066;5.194;2022-12-18T12:38:01;26.8;;;19.7;;